Time;durP1;ratioP1;P1;durP2;ratioP2;P2;SDS_P1;SDS_P2;PMS_P1;PMS_P2;Temp;Humidity;BMP_temperature;BMP_pressure;BME280_temperature;BME280_humidity;BME280_pressure;Samples;Min_cycle;Max_cycle;Signal;HPM_P1;HPM_P2
2021/10/18 00:00:12;;;;;;;7.47;1.70;;;;;;;;;;5067907;28;20087;-67
2021/10/18 00:02:39;;;;;;;4.63;2.05;;;;;;;;;;5067892;28;20073;-66
2021/10/18 00:05:06;;;;;;;5.67;2.00;;;;;;;;;;5062391;28;20125;-66
2021/10/18 00:07:33;;;;;;;4.25;2.00;;;;;;;;;;5065484;28;20071;-66
2021/10/18 00:09:59;;;;;;;2.63;1.88;;;;;;;;;;5065070;28;20072;-66
2021/10/18 00:12:26;;;;;;;2.67;1.92;;;;;;;;;;5065223;28;20138;-66
2021/10/18 00:14:53;;;;;;;4.72;2.00;;;;;;;;;;5065167;28;20086;-66
2021/10/18 00:17:19;;;;;;;5.53;1.75;;;;;;;;;;5065347;28;20152;-66
2021/10/18 00:19:45;;;;;;;3.72;2.22;;;;;;;;;;5068491;28;20140;-66
2021/10/18 00:22:12;;;;;;;3.13;2.20;;;;;;;;;;5070871;28;20131;-66
2021/10/18 00:24:38;;;;;;;4.00;1.95;;;;;;;;;;5065952;28;20496;-66
2021/10/18 00:27:05;;;;;;;2.25;1.80;;;;;;;;;;5066867;28;20123;-66
2021/10/18 00:29:31;;;;;;;2.47;1.48;;;;;;;;;;5064045;28;20077;-66
2021/10/18 00:31:58;;;;;;;6.70;2.25;;;;;;;;;;5062783;28;20131;-66
2021/10/18 00:34:24;;;;;;;5.25;1.95;;;;;;;;;;5064502;28;20055;-66
2021/10/18 00:36:51;;;;;;;5.10;2.00;;;;;;;;;;5062999;28;20087;-66
2021/10/18 00:39:17;;;;;;;2.78;1.75;;;;;;;;;;5057953;28;20144;-66
2021/10/18 00:41:44;;;;;;;3.05;1.92;;;;;;;;;;5065535;28;20125;-66
2021/10/18 00:44:11;;;;;;;2.90;1.53;;;;;;;;;;5069817;28;20083;-66
2021/10/18 00:46:37;;;;;;;3.10;1.30;;;;;;;;;;5064406;28;20390;-66
2021/10/18 00:49:03;;;;;;;4.00;1.63;;;;;;;;;;5063674;28;20851;-66
2021/10/18 00:51:31;;;;;;;2.03;1.40;;;;;;;;;;5060743;28;20081;-66
2021/10/18 00:54:00;;;;;;;6.97;2.17;;;;;;;;;;5066468;28;20083;-66
2021/10/18 00:56:27;;;;;;;3.50;1.60;;;;;;;;;;5066480;28;20522;-66
2021/10/18 00:58:55;;;;;;;2.70;1.58;;;;;;;;;;5069628;28;20512;-66
2021/10/18 01:01:22;;;;;;;3.67;2.10;;;;;;;;;;5063505;28;20083;-66
2021/10/18 01:03:49;;;;;;;3.20;2.00;;;;;;;;;;5067845;28;20079;-66
2021/10/18 01:06:16;;;;;;;2.17;1.33;;;;;;;;;;5062228;28;20086;-66
2021/10/18 01:08:42;;;;;;;5.95;1.90;;;;;;;;;;5068018;28;20076;-66
2021/10/18 01:11:09;;;;;;;2.60;1.77;;;;;;;;;;5062916;28;20347;-66
2021/10/18 01:13:35;;;;;;;2.38;1.40;;;;;;;;;;5065161;28;20076;-66
2021/10/18 01:16:01;;;;;;;3.15;2.13;;;;;;;;;;5064812;28;20045;-66
2021/10/18 01:18:28;;;;;;;2.60;1.90;;;;;;;;;;5061785;28;20110;-66
2021/10/18 01:20:55;;;;;;;3.07;2.17;;;;;;;;;;5065526;28;20143;-66
2021/10/18 01:23:21;;;;;;;3.30;1.88;;;;;;;;;;5065774;28;20366;-66
2021/10/18 01:25:48;;;;;;;7.97;2.33;;;;;;;;;;5065587;28;20607;-66
2021/10/18 01:28:15;;;;;;;1.27;1.17;;;;;;;;;;5059649;28;20143;-66
2021/10/18 01:30:41;;;;;;;5.68;1.70;;;;;;;;;;5062772;28;20167;-66
2021/10/18 01:33:08;;;;;;;3.70;1.73;;;;;;;;;;5067124;28;20127;-66
2021/10/18 01:35:34;;;;;;;2.45;1.42;;;;;;;;;;5067618;28;20076;-66
2021/10/18 01:38:01;;;;;;;2.03;1.60;;;;;;;;;;5059519;28;20611;-66
2021/10/18 01:40:28;;;;;;;4.37;1.67;;;;;;;;;;5060135;28;20066;-66
2021/10/18 01:42:55;;;;;;;3.33;1.90;;;;;;;;;;5067877;28;20703;-66
2021/10/18 01:45:22;;;;;;;3.27;1.97;;;;;;;;;;5064003;28;20087;-66
2021/10/18 01:47:48;;;;;;;2.25;1.70;;;;;;;;;;5065282;28;20151;-66
2021/10/18 01:50:16;;;;;;;3.08;1.70;;;;;;;;;;5062655;28;20127;-66
2021/10/18 01:52:43;;;;;;;3.97;1.92;;;;;;;;;;5060625;28;20096;-66
2021/10/18 01:55:09;;;;;;;2.25;1.75;;;;;;;;;;5063104;28;20147;-66
2021/10/18 01:57:37;;;;;;;2.77;1.87;;;;;;;;;;5066585;28;20670;-65
2021/10/18 02:00:06;;;;;;;4.18;1.60;;;;;;;;;;5063830;28;20295;-66
2021/10/18 02:02:32;;;;;;;9.38;2.00;;;;;;;;;;5065627;28;20052;-66
2021/10/18 02:04:59;;;;;;;2.78;1.95;;;;;;;;;;5061034;28;20559;-66
2021/10/18 02:07:26;;;;;;;2.45;1.63;;;;;;;;;;5060647;28;20088;-66
2021/10/18 02:09:55;;;;;;;2.05;1.27;;;;;;;;;;5060706;28;20052;-66
2021/10/18 02:12:22;;;;;;;3.15;1.70;;;;;;;;;;5064239;28;20087;-66
2021/10/18 02:14:49;;;;;;;6.38;2.50;;;;;;;;;;5063590;28;20178;-66
2021/10/18 02:17:16;;;;;;;2.22;1.60;;;;;;;;;;5062125;28;20089;-66
2021/10/18 02:19:43;;;;;;;;;;;;;;;;;;5063618;28;20144;-66
2021/10/18 02:22:09;;;;;;;3.63;1.40;;;;;;;;;;5064074;28;19963;-66
2021/10/18 02:24:35;;;;;;;4.88;1.80;;;;;;;;;;5065625;28;20131;-66
2021/10/18 02:27:02;;;;;;;2.15;1.40;;;;;;;;;;5060987;28;20226;-66
2021/10/18 02:29:29;;;;;;;3.05;2.00;;;;;;;;;;5066055;28;20091;-66
2021/10/18 02:31:55;;;;;;;3.07;2.00;;;;;;;;;;5057667;28;20076;-66
2021/10/18 02:34:22;;;;;;;2.58;1.70;;;;;;;;;;5060227;28;20331;-66
2021/10/18 02:36:48;;;;;;;3.33;1.92;;;;;;;;;;5058490;28;20124;-66
2021/10/18 02:39:15;;;;;;;4.05;1.88;;;;;;;;;;5063384;28;20456;-66
2021/10/18 02:41:42;;;;;;;4.30;2.22;;;;;;;;;;5063506;28;20076;-67
2021/10/18 02:44:09;;;;;;;3.25;1.92;;;;;;;;;;5063728;28;20124;-66
2021/10/18 02:46:35;;;;;;;3.13;2.10;;;;;;;;;;5065207;28;20578;-67
2021/10/18 02:49:02;;;;;;;5.38;2.20;;;;;;;;;;5042986;28;20098;-67
2021/10/18 02:51:28;;;;;;;3.83;2.00;;;;;;;;;;5062700;28;20127;-66
2021/10/18 02:53:55;;;;;;;3.03;1.85;;;;;;;;;;5059703;28;20080;-66
2021/10/18 02:56:21;;;;;;;6.38;1.92;;;;;;;;;;5057084;28;20370;-66
2021/10/18 02:58:48;;;;;;;5.30;2.00;;;;;;;;;;5041494;28;20073;-68
2021/10/18 03:01:14;;;;;;;3.08;1.90;;;;;;;;;;5061512;28;20084;-66
2021/10/18 03:03:41;;;;;;;4.63;1.60;;;;;;;;;;5063828;28;20140;-66
2021/10/18 03:06:07;;;;;;;6.05;1.80;;;;;;;;;;5061603;28;20052;-67
2021/10/18 03:08:34;;;;;;;3.28;1.90;;;;;;;;;;5062875;28;20090;-66
2021/10/18 03:11:00;;;;;;;4.00;1.90;;;;;;;;;;5066247;28;20080;-67
2021/10/18 03:13:28;;;;;;;3.65;1.80;;;;;;;;;;5063742;28;20483;-67
2021/10/18 03:15:54;;;;;;;3.40;1.77;;;;;;;;;;5062513;28;20075;-66
2021/10/18 03:18:21;;;;;;;1.98;1.58;;;;;;;;;;5062054;28;20061;-67
2021/10/18 03:20:48;;;;;;;2.70;1.50;;;;;;;;;;5057492;28;20135;-66
2021/10/18 03:23:14;;;;;;;2.50;1.75;;;;;;;;;;5059995;28;20259;-66
2021/10/18 03:25:41;;;;;;;4.25;1.95;;;;;;;;;;5059361;28;20072;-66
2021/10/18 03:28:07;;;;;;;4.57;1.95;;;;;;;;;;5064464;28;20143;-67
2021/10/18 03:30:33;;;;;;;3.25;1.80;;;;;;;;;;5057674;28;20136;-66
2021/10/18 03:33:00;;;;;;;2.92;1.83;;;;;;;;;;5064612;28;20110;-67
2021/10/18 03:35:26;;;;;;;6.53;2.20;;;;;;;;;;5064552;28;20083;-67
2021/10/18 03:37:53;;;;;;;3.90;1.70;;;;;;;;;;5058569;28;20084;-67
2021/10/18 03:40:19;;;;;;;4.43;1.77;;;;;;;;;;5063575;28;20046;-66
2021/10/18 03:42:46;;;;;;;3.15;1.70;;;;;;;;;;5067482;28;20079;-66
2021/10/18 03:45:12;;;;;;;6.78;2.17;;;;;;;;;;5065038;28;20115;-67
2021/10/18 03:47:39;;;;;;;2.03;1.40;;;;;;;;;;5068011;28;20539;-66
2021/10/18 03:50:06;;;;;;;3.10;2.22;;;;;;;;;;5066239;28;20139;-66
2021/10/18 03:52:33;;;;;;;3.40;2.20;;;;;;;;;;5063508;28;20123;-66
2021/10/18 03:55:00;;;;;;;2.08;1.70;;;;;;;;;;5064512;28;20072;-67
2021/10/18 03:57:26;;;;;;;6.40;2.17;;;;;;;;;;5067077;28;20496;-66
2021/10/18 03:59:52;;;;;;;5.30;1.92;;;;;;;;;;5063214;28;20041;-67
2021/10/18 04:02:19;;;;;;;4.05;1.42;;;;;;;;;;5065638;28;20150;-67
2021/10/18 04:04:46;;;;;;;4.82;1.88;;;;;;;;;;5066722;28;20044;-67
2021/10/18 04:07:12;;;;;;;6.03;2.10;;;;;;;;;;5069607;28;20104;-66
2021/10/18 04:09:39;;;;;;;4.03;2.10;;;;;;;;;;5056651;28;20044;-67
2021/10/18 04:12:06;;;;;;;3.55;1.70;;;;;;;;;;5063569;28;20473;-67
2021/10/18 04:14:32;;;;;;;3.08;2.05;;;;;;;;;;5070828;28;20496;-67
2021/10/18 04:16:59;;;;;;;5.20;2.22;;;;;;;;;;5069541;28;20036;-67
2021/10/18 04:19:26;;;;;;;3.50;1.85;;;;;;;;;;5064184;28;20188;-66
2021/10/18 04:21:52;;;;;;;4.28;1.92;;;;;;;;;;5065700;28;20180;-66
2021/10/18 04:24:19;;;;;;;7.40;2.10;;;;;;;;;;5064809;28;20128;-66
2021/10/18 04:26:45;;;;;;;3.67;2.13;;;;;;;;;;5066418;28;20147;-66
2021/10/18 04:29:13;;;;;;;;;;;;;;;;;;5063775;28;20052;-67
2021/10/18 04:31:40;;;;;;;7.30;1.70;;;;;;;;;;5067555;28;20003;-66
2021/10/18 04:34:06;;;;;;;7.07;2.30;;;;;;;;;;5069836;28;20076;-67
2021/10/18 04:36:33;;;;;;;3.40;2.03;;;;;;;;;;5062316;28;20771;-67
2021/10/18 04:39:00;;;;;;;2.00;1.38;;;;;;;;;;5067928;28;20071;-67
2021/10/18 04:41:26;;;;;;;6.25;2.15;;;;;;;;;;5064522;28;20081;-66
2021/10/18 04:43:52;;;;;;;3.40;2.00;;;;;;;;;;5066071;28;20548;-67
2021/10/18 04:46:19;;;;;;;3.10;2.37;;;;;;;;;;5067668;28;20128;-67
2021/10/18 04:48:45;;;;;;;5.32;2.30;;;;;;;;;;5066457;28;20372;-67
2021/10/18 04:51:12;;;;;;;5.80;2.38;;;;;;;;;;5064783;28;20091;-67
2021/10/18 04:53:39;;;;;;;5.50;2.47;;;;;;;;;;5060948;28;20087;-67
2021/10/18 04:56:05;;;;;;;3.60;2.35;;;;;;;;;;5063860;28;20131;-67
2021/10/18 04:58:31;;;;;;;4.28;2.30;;;;;;;;;;5065211;28;20871;-67
2021/10/18 05:00:59;;;;;;;6.80;2.28;;;;;;;;;;5061341;28;20551;-67
2021/10/18 05:03:25;;;;;;;5.15;1.95;;;;;;;;;;5065590;28;20048;-67
2021/10/18 05:05:54;;;;;;;5.65;1.90;;;;;;;;;;5057579;28;20511;-67
2021/10/18 05:08:29;;;;;;;8.10;2.35;;;;;;;;;;5064357;28;20053;-67
2021/10/18 05:10:56;;;;;;;3.57;1.90;;;;;;;;;;5063828;28;20044;-67
2021/10/18 05:13:23;;;;;;;3.42;2.03;;;;;;;;;;5067921;28;20761;-67
2021/10/18 05:15:52;;;;;;;6.75;2.13;;;;;;;;;;5068227;28;20067;-67
2021/10/18 05:18:21;;;;;;;5.03;2.08;;;;;;;;;;5061232;28;20389;-67
2021/10/18 05:20:49;;;;;;;3.47;2.10;;;;;;;;;;5063630;28;20044;-67
2021/10/18 05:23:15;;;;;;;2.97;1.90;;;;;;;;;;5064749;28;20139;-67
2021/10/18 05:25:42;;;;;;;5.70;1.65;;;;;;;;;;5057474;28;20072;-67
2021/10/18 05:28:09;;;;;;;4.97;1.75;;;;;;;;;;5067171;28;20076;-67
2021/10/18 05:30:36;;;;;;;5.30;2.13;;;;;;;;;;5066511;28;20060;-67
2021/10/18 05:33:02;;;;;;;3.55;2.28;;;;;;;;;;5065937;28;20785;-68
2021/10/18 05:35:29;;;;;;;4.15;2.40;;;;;;;;;;5061774;28;20452;-67
2021/10/18 05:37:56;;;;;;;3.17;2.10;;;;;;;;;;5062148;28;20131;-67
2021/10/18 05:40:23;;;;;;;5.77;2.50;;;;;;;;;;5060419;28;20063;-67
2021/10/18 05:42:51;;;;;;;4.75;2.00;;;;;;;;;;5059195;28;20831;-67
2021/10/18 05:45:18;;;;;;;3.53;1.90;;;;;;;;;;5062630;28;20091;-67
2021/10/18 05:47:51;;;;;;;5.65;1.77;;;;;;;;;;5062626;28;20081;-67
2021/10/18 05:50:19;;;;;;;7.13;2.00;;;;;;;;;;5051257;28;20080;-66
2021/10/18 05:52:45;;;;;;;6.63;2.10;;;;;;;;;;5056666;28;20139;-67
2021/10/18 05:55:11;;;;;;;7.10;2.13;;;;;;;;;;5055661;28;20147;-67
2021/10/18 05:57:51;;;;;;;3.28;2.20;;;;;;;;;;5066326;28;20079;-67
2021/10/18 06:00:18;;;;;;;3.03;2.10;;;;;;;;;;5057235;28;20040;-67
2021/10/18 06:02:45;;;;;;;6.78;2.30;;;;;;;;;;5061758;28;20060;-67
2021/10/18 06:05:11;;;;;;;8.98;2.03;;;;;;;;;;5059964;28;20091;-67
2021/10/18 06:07:38;;;;;;;1.80;1.33;;;;;;;;;;5062900;28;20094;-67
2021/10/18 06:10:06;;;;;;;3.10;2.17;;;;;;;;;;5061714;28;20512;-67
2021/10/18 06:12:32;;;;;;;;;;;;;;;;;;5064263;28;20044;-67
2021/10/18 06:14:58;;;;;;;5.40;2.03;;;;;;;;;;5059963;28;20011;-67
2021/10/18 06:17:26;;;;;;;4.10;1.92;;;;;;;;;;5066897;28;20136;-67
2021/10/18 06:19:52;;;;;;;2.60;1.47;;;;;;;;;;5058719;28;20077;-67
2021/10/18 06:22:19;;;;;;;9.02;2.50;;;;;;;;;;5062490;28;20283;-67
2021/10/18 06:24:46;;;;;;;6.65;2.00;;;;;;;;;;5058924;28;20040;-67
2021/10/18 06:27:12;;;;;;;5.32;2.05;;;;;;;;;;5063491;28;20060;-67
2021/10/18 06:29:39;;;;;;;6.25;2.50;;;;;;;;;;5058162;28;20485;-68
2021/10/18 06:32:06;;;;;;;4.57;2.10;;;;;;;;;;5061598;28;20049;-67
2021/10/18 06:34:33;;;;;;;2.80;2.00;;;;;;;;;;5059993;28;20072;-66
2021/10/18 06:36:59;;;;;;;3.15;1.85;;;;;;;;;;5066687;28;20504;-67
2021/10/18 06:39:27;;;;;;;2.75;1.90;;;;;;;;;;5063599;28;20142;-66
2021/10/18 06:41:53;;;;;;;6.60;2.15;;;;;;;;;;5061788;28;20188;-66
2021/10/18 06:44:19;;;;;;;5.05;2.20;;;;;;;;;;5063604;28;20080;-66
2021/10/18 06:46:46;;;;;;;1.52;1.33;;;;;;;;;;5055215;28;20041;-66
2021/10/18 06:49:13;;;;;;;5.07;2.25;;;;;;;;;;5059067;28;20084;-67
2021/10/18 06:51:47;;;;;;;3.70;1.75;;;;;;;;;;5058234;28;20132;-66
2021/10/18 06:54:14;;;;;;;10.65;2.05;;;;;;;;;;5060650;28;20053;-66
2021/10/18 06:56:44;;;;;;;4.85;1.90;;;;;;;;;;5065273;28;20520;-67
2021/10/18 06:59:11;;;;;;;16.73;2.80;;;;;;;;;;5060077;28;20080;-67
2021/10/18 07:01:38;;;;;;;6.55;2.47;;;;;;;;;;5060835;28;20411;-66
2021/10/18 07:04:05;;;;;;;8.82;2.72;;;;;;;;;;5062265;28;20052;-66
2021/10/18 07:06:31;;;;;;;3.45;2.03;;;;;;;;;;5064682;28;20148;-66
2021/10/18 07:08:58;;;;;;;7.40;2.00;;;;;;;;;;5068083;28;20122;-67
2021/10/18 07:11:26;;;;;;;5.18;2.20;;;;;;;;;;5056618;28;20044;-67
2021/10/18 07:13:53;;;;;;;3.90;1.90;;;;;;;;;;5061991;28;20139;-66
2021/10/18 07:16:19;;;;;;;2.50;1.83;;;;;;;;;;5059139;28;20135;-67
2021/10/18 07:18:46;;;;;;;4.00;2.20;;;;;;;;;;5066649;28;20065;-67
2021/10/18 07:21:13;;;;;;;3.90;2.05;;;;;;;;;;5065579;28;20081;-67
2021/10/18 07:23:40;;;;;;;7.20;2.13;;;;;;;;;;5065557;28;20135;-67
2021/10/18 07:26:07;;;;;;;4.03;2.53;;;;;;;;;;5065279;28;20077;-67
2021/10/18 07:28:36;;;;;;;4.80;2.22;;;;;;;;;;5066695;28;20131;-67
2021/10/18 07:31:02;;;;;;;3.92;1.80;;;;;;;;;;5063135;28;20053;-67
2021/10/18 07:33:29;;;;;;;4.03;2.17;;;;;;;;;;5065541;28;20075;-67
2021/10/18 07:35:57;;;;;;;6.55;2.30;;;;;;;;;;5060405;28;20151;-66
2021/10/18 07:38:24;;;;;;;3.08;1.80;;;;;;;;;;5068232;28;20782;-67
2021/10/18 07:40:51;;;;;;;;;;;;;;;;;;5065774;28;20076;-67
2021/10/18 07:43:18;;;;;;;3.78;1.80;;;;;;;;;;5064848;28;20019;-67
2021/10/18 07:45:45;;;;;;;4.65;2.13;;;;;;;;;;5068866;28;20059;-67
2021/10/18 07:48:12;;;;;;;7.68;2.10;;;;;;;;;;5069474;28;20045;-67
2021/10/18 07:50:38;;;;;;;5.93;3.00;;;;;;;;;;5065330;28;20056;-66
2021/10/18 07:53:05;;;;;;;5.03;2.95;;;;;;;;;;5065475;28;20074;-66
2021/10/18 07:55:36;;;;;;;8.75;2.42;;;;;;;;;;5066715;28;20139;-67
2021/10/18 07:58:18;;;;;;;4.13;2.22;;;;;;;;;;5062362;28;20049;-67
2021/10/18 08:00:45;;;;;;;3.50;2.30;;;;;;;;;;5064965;28;20563;-66
2021/10/18 08:03:12;;;;;;;3.72;1.77;;;;;;;;;;5067084;28;20044;-66
2021/10/18 08:05:38;;;;;;;3.38;2.28;;;;;;;;;;5059505;28;20136;-67
2021/10/18 08:08:09;;;;;;;2.92;1.92;;;;;;;;;;5064080;28;20135;-66
2021/10/18 08:10:36;;;;;;;8.35;2.67;;;;;;;;;;5064381;28;20091;-66
2021/10/18 08:13:02;;;;;;;3.13;2.07;;;;;;;;;;5064974;28;20135;-66
2021/10/18 08:15:35;;;;;;;;;;;;;;;;;;5068601;28;20049;-66
2021/10/18 08:18:02;;;;;;;3.65;2.95;;;;;;;;;;5066404;28;19920;-66
2021/10/18 08:20:28;;;;;;;3.00;1.60;;;;;;;;;;5065519;28;20056;-66
2021/10/18 08:22:55;;;;;;;4.95;3.55;;;;;;;;;;5066947;28;20611;-66
2021/10/18 08:25:22;;;;;;;7.28;4.00;;;;;;;;;;5068713;28;20124;-66
2021/10/18 08:27:48;;;;;;;6.82;4.43;;;;;;;;;;5060258;28;20167;-66
2021/10/18 08:30:15;;;;;;;5.88;3.70;;;;;;;;;;5064703;28;20056;-66
2021/10/18 08:32:42;;;;;;;3.67;2.50;;;;;;;;;;5067985;28;20155;-66
2021/10/18 08:35:10;;;;;;;4.95;2.30;;;;;;;;;;5063209;28;20131;-66
2021/10/18 08:40:26;;;;;;;4.50;1.95;;;;;;;;;;5065367;28;20195;-66
2021/10/18 08:45:49;;;;;;;3.05;1.98;;;;;;;;;;5011102;28;20153;-66
2021/10/18 08:48:15;;;;;;;6.15;2.38;;;;;;;;;;5064676;28;20088;-66
2021/10/18 08:50:42;;;;;;;7.53;2.08;;;;;;;;;;5063761;28;20488;-66
2021/10/18 08:53:08;;;;;;;5.25;2.20;;;;;;;;;;5059788;28;20048;-66
2021/10/18 08:55:39;;;;;;;5.97;2.15;;;;;;;;;;5060515;28;20087;-66
2021/10/18 08:58:06;;;;;;;3.63;2.25;;;;;;;;;;5058327;28;20531;-66
2021/10/18 09:00:37;;;;;;;3.25;2.20;;;;;;;;;;5068874;28;20131;-66
2021/10/18 09:03:22;;;;;;;3.50;2.20;;;;;;;;;;5067551;28;20063;-66
2021/10/18 09:05:49;;;;;;;3.95;1.88;;;;;;;;;;5063673;28;20064;-66
2021/10/18 09:08:31;;;;;;;7.40;2.00;;;;;;;;;;5067535;28;20110;-66
2021/10/18 09:11:14;;;;;;;4.53;2.20;;;;;;;;;;5064623;28;20092;-66
2021/10/18 09:13:42;;;;;;;2.95;1.88;;;;;;;;;;5067066;28;20136;-66
2021/10/18 09:16:11;;;;;;;3.47;1.92;;;;;;;;;;5060174;28;20053;-66
2021/10/18 09:18:38;;;;;;;5.00;2.13;;;;;;;;;;5062748;28;20059;-66
2021/10/18 09:21:06;;;;;;;4.28;2.30;;;;;;;;;;5066168;28;20044;-66
2021/10/18 09:23:37;;;;;;;2.63;1.60;;;;;;;;;;5059145;28;20080;-66
2021/10/18 09:26:05;;;;;;;3.35;2.10;;;;;;;;;;5068070;28;20045;-66
2021/10/18 09:28:33;;;;;;;4.30;2.20;;;;;;;;;;5060399;28;20496;-66
2021/10/18 09:31:00;;;;;;;;;;;;;;;;;;5065146;28;20055;-66
2021/10/18 09:33:38;;;;;;;4.22;2.40;;;;;;;;;;5066138;28;19954;-66
2021/10/18 09:36:10;;;;;;;4.43;2.00;;;;;;;;;;5063024;28;20086;-66
2021/10/18 09:38:37;;;;;;;4.93;1.58;;;;;;;;;;5058017;28;20076;-66
2021/10/18 09:41:05;;;;;;;3.72;1.38;;;;;;;;;;5064830;28;20049;-66
2021/10/18 09:43:54;;;;;;;1.52;0.98;;;;;;;;;;5061156;28;20045;-66
2021/10/18 09:46:25;;;;;;;2.95;1.00;;;;;;;;;;5064885;28;20092;-67
2021/10/18 10:51:29;;;;;;;2.33;0.88;;;;;;;;;;5065816;28;20396;-67
2021/10/18 10:54:04;;;;;;;1.23;0.65;;;;;;;;;;5065503;28;20139;-66
2021/10/18 10:56:39;;;;;;;1.65;0.70;;;;;;;;;;5064575;28;20044;-67
2021/10/18 10:59:19;;;;;;;2.70;0.82;;;;;;;;;;5067732;28;20120;-67
2021/10/18 11:01:51;;;;;;;1.88;0.85;;;;;;;;;;5064873;28;20052;-67
2021/10/18 11:04:34;;;;;;;0.90;0.60;;;;;;;;;;5059577;28;20045;-67
2021/10/18 11:07:01;;;;;;;1.02;0.73;;;;;;;;;;5064539;28;20072;-66
2021/10/18 11:09:44;;;;;;;2.15;0.50;;;;;;;;;;5064242;28;20583;-67
2021/10/18 11:12:17;;;;;;;1.85;0.88;;;;;;;;;;5066593;28;20056;-67
2021/10/18 11:14:55;;;;;;;1.38;0.90;;;;;;;;;;5068830;28;20076;-66
2021/10/18 11:17:21;;;;;;;;;;;;;;;;;;5057187;28;20081;-66
2021/10/18 11:19:53;;;;;;;1.77;0.88;;;;;;;;;;5069477;28;20524;-67
2021/10/18 11:22:26;;;;;;;2.58;0.90;;;;;;;;;;5066489;28;20962;-66
2021/10/18 11:24:53;;;;;;;2.38;0.88;;;;;;;;;;5063654;28;20059;-67
2021/10/18 11:27:31;;;;;;;0.80;0.80;;;;;;;;;;5065937;28;20136;-67
2021/10/18 11:29:59;;;;;;;1.05;0.73;;;;;;;;;;5063089;28;20128;-66
2021/10/18 11:32:26;;;;;;;1.33;0.80;;;;;;;;;;5065384;28;20115;-67
2021/10/18 11:35:05;;;;;;;0.80;0.52;;;;;;;;;;5065298;28;20165;-67
2021/10/18 11:37:51;;;;;;;1.35;0.80;;;;;;;;;;5065609;28;20127;-67
2021/10/18 11:40:18;;;;;;;1.45;0.70;;;;;;;;;;5065619;28;20063;-67
2021/10/18 11:43:11;;;;;;;1.70;0.82;;;;;;;;;;5070327;28;20068;-67
2021/10/18 11:45:40;;;;;;;2.58;1.13;;;;;;;;;;5062212;28;20131;-67
2021/10/18 11:48:14;;;;;;;1.77;0.90;;;;;;;;;;5067106;28;20098;-67
2021/10/18 11:50:41;;;;;;;0.90;0.70;;;;;;;;;;5066495;28;20144;-66
2021/10/18 11:53:09;;;;;;;1.38;0.60;;;;;;;;;;5060989;28;20132;-67
2021/10/18 11:55:35;;;;;;;;;;;;;;;;;;5064423;28;20684;-67
2021/10/18 11:58:04;;;;;;;1.35;0.80;;;;;;;;;;5063406;28;19986;-66
2021/10/18 12:00:32;;;;;;;0.88;0.60;;;;;;;;;;5066228;28;20049;-67
2021/10/18 12:03:01;;;;;;;1.75;0.70;;;;;;;;;;5063590;28;20400;-67
2021/10/18 12:05:37;;;;;;;0.75;0.60;;;;;;;;;;5066205;28;20048;-68
2021/10/18 12:08:05;;;;;;;2.97;0.88;;;;;;;;;;5064737;28;20052;-67
2021/10/18 12:10:32;;;;;;;0.95;0.70;;;;;;;;;;5062384;28;20144;-67
2021/10/18 12:13:12;;;;;;;1.80;0.50;;;;;;;;;;5063883;28;20080;-67
2021/10/18 12:15:43;;;;;;;1.60;0.80;;;;;;;;;;5058106;28;20783;-67
2021/10/18 12:18:10;;;;;;;1.42;0.60;;;;;;;;;;5067470;28;20592;-67
2021/10/18 12:20:41;;;;;;;1.23;0.60;;;;;;;;;;5063808;28;20081;-67
2021/10/18 12:23:09;;;;;;;1.98;0.90;;;;;;;;;;5065347;28;20068;-66
2021/10/18 12:25:38;;;;;;;1.00;0.70;;;;;;;;;;5060602;28;20144;-67
2021/10/18 12:28:25;;;;;;;1.25;1.02;;;;;;;;;;5065922;28;20114;-67
2021/10/18 12:30:51;;;;;;;1.20;0.90;;;;;;;;;;5064717;28;20092;-67
2021/10/18 12:33:18;;;;;;;1.13;0.80;;;;;;;;;;5064622;28;20518;-67
2021/10/18 12:35:58;;;;;;;2.92;1.00;;;;;;;;;;5062392;28;20074;-67
2021/10/18 12:38:27;;;;;;;2.45;0.75;;;;;;;;;;5062960;28;20144;-67
2021/10/18 12:41:25;;;;;;;1.65;0.70;;;;;;;;;;5068982;28;20048;-67
2021/10/18 12:43:53;;;;;;;2.15;1.13;;;;;;;;;;5034485;28;20515;-67
2021/10/18 12:46:21;;;;;;;1.55;0.95;;;;;;;;;;5064166;28;20048;-67
2021/10/18 12:48:55;;;;;;;1.73;0.63;;;;;;;;;;5064066;28;20420;-67
2021/10/18 12:51:48;;;;;;;3.42;1.02;;;;;;;;;;5061103;28;20063;-67
2021/10/18 12:54:19;;;;;;;1.70;1.00;;;;;;;;;;5053975;28;20072;-67
2021/10/18 12:56:59;;;;;;;1.65;0.80;;;;;;;;;;5065999;28;20048;-66
2021/10/18 12:59:25;;;;;;;2.05;0.73;;;;;;;;;;5067097;28;20461;-67
2021/10/18 13:02:11;;;;;;;1.90;0.90;;;;;;;;;;5062751;28;20068;-67
2021/10/18 13:04:37;;;;;;;4.07;0.90;;;;;;;;;;5063548;28;20048;-67
2021/10/18 13:07:04;;;;;;;1.23;0.80;;;;;;;;;;5060360;28;20072;-66
2021/10/18 13:09:30;;;;;;;1.50;0.80;;;;;;;;;;5061573;28;20072;-67
2021/10/18 13:11:57;;;;;;;2.20;0.95;;;;;;;;;;5068150;28;20075;-66
2021/10/18 13:14:25;;;;;;;0.65;0.65;;;;;;;;;;5064140;28;20044;-67
2021/10/18 13:16:51;;;;;;;1.10;0.98;;;;;;;;;;5067164;28;20048;-67
2021/10/18 13:19:17;;;;;;;1.52;0.82;;;;;;;;;;5063819;28;20056;-67
2021/10/18 13:21:44;;;;;;;2.25;1.00;;;;;;;;;;5064820;28;20124;-67
2021/10/18 13:24:11;;;;;;;2.22;1.13;;;;;;;;;;5063608;28;20227;-67
2021/10/18 13:26:37;;;;;;;1.98;0.90;;;;;;;;;;5064414;28;20564;-67
2021/10/18 13:29:04;;;;;;;2.07;0.80;;;;;;;;;;5052043;28;20131;-67
2021/10/18 13:31:30;;;;;;;1.45;0.95;;;;;;;;;;5060812;28;20484;-67
2021/10/18 13:33:57;;;;;;;1.38;0.90;;;;;;;;;;5057805;28;20068;-66
2021/10/18 13:36:25;;;;;;;0.93;0.73;;;;;;;;;;5064899;28;20619;-67
2021/10/18 13:38:51;;;;;;;2.28;0.75;;;;;;;;;;5059652;28;20079;-66
2021/10/18 13:41:18;;;;;;;1.80;0.90;;;;;;;;;;5061026;28;20143;-67
2021/10/18 13:43:44;;;;;;;2.10;1.02;;;;;;;;;;5061541;28;20076;-66
2021/10/18 13:46:10;;;;;;;5.30;0.85;;;;;;;;;;5061929;28;20048;-67
2021/10/18 13:48:40;;;;;;;1.58;0.63;;;;;;;;;;5062980;28;20049;-67
2021/10/18 13:51:06;;;;;;;1.27;0.60;;;;;;;;;;5061749;28;20151;-67
2021/10/18 13:53:33;;;;;;;1.73;0.80;;;;;;;;;;5060820;28;20139;-67
2021/10/18 13:56:00;;;;;;;1.65;0.70;;;;;;;;;;5059289;28;20135;-66
2021/10/18 13:58:27;;;;;;;2.00;0.50;;;;;;;;;;5060774;28;20055;-66
2021/10/18 14:00:58;;;;;;;0.98;0.43;;;;;;;;;;5055055;28;21149;-67
2021/10/18 14:03:24;;;;;;;0.60;0.32;;;;;;;;;;5058233;28;20045;-67
2021/10/18 14:05:51;;;;;;;0.90;0.65;;;;;;;;;;5059789;28;20083;-67
2021/10/18 14:08:17;;;;;;;1.33;0.60;;;;;;;;;;5062663;28;20135;-67
2021/10/18 14:10:44;;;;;;;0.63;0.47;;;;;;;;;;5063884;28;20097;-67
2021/10/18 14:13:12;;;;;;;2.42;0.60;;;;;;;;;;5066894;28;20069;-67
2021/10/18 14:15:39;;;;;;;1.83;0.70;;;;;;;;;;5061500;28;20080;-67
2021/10/18 14:18:06;;;;;;;1.50;0.73;;;;;;;;;;5065851;28;20062;-66
2021/10/18 14:20:33;;;;;;;3.60;0.75;;;;;;;;;;5065101;28;20080;-66
2021/10/18 14:22:59;;;;;;;0.93;0.52;;;;;;;;;;5067757;28;20083;-66
2021/10/18 14:25:29;;;;;;;3.30;0.82;;;;;;;;;;5064482;28;20072;-67
2021/10/18 14:27:56;;;;;;;0.57;0.40;;;;;;;;;;5065655;28;20140;-67
2021/10/18 14:30:22;;;;;;;1.67;0.90;;;;;;;;;;5061407;28;20135;-67
2021/10/18 14:32:53;;;;;;;2.05;0.50;;;;;;;;;;5060060;28;20095;-66
2021/10/18 14:35:20;;;;;;;0.63;0.50;;;;;;;;;;5058706;28;20072;-67
2021/10/18 14:37:46;;;;;;;1.52;0.73;;;;;;;;;;5064669;28;20156;-67
2021/10/18 14:40:13;;;;;;;3.38;1.10;;;;;;;;;;5064439;28;20091;-66
2021/10/18 14:42:40;;;;;;;0.80;0.60;;;;;;;;;;5045291;28;20132;-66
2021/10/18 14:45:06;;;;;;;0.95;0.73;;;;;;;;;;5066884;28;20075;-67
2021/10/18 14:47:36;;;;;;;2.00;0.87;;;;;;;;;;5057988;28;20114;-66
2021/10/18 14:50:06;;;;;;;2.35;0.60;;;;;;;;;;5064044;28;20049;-67
2021/10/18 14:52:37;;;;;;;2.78;0.80;;;;;;;;;;5059386;28;20076;-67
2021/10/18 14:55:05;;;;;;;4.75;0.80;;;;;;;;;;5055538;28;20127;-66
2021/10/18 14:57:31;;;;;;;1.05;0.65;;;;;;;;;;5058318;28;20483;-66
2021/10/18 14:59:58;;;;;;;0.68;0.50;;;;;;;;;;5064992;28;20083;-67
2021/10/18 15:02:28;;;;;;;1.05;0.70;;;;;;;;;;5063778;28;20073;-66
2021/10/18 15:04:55;;;;;;;2.03;0.75;;;;;;;;;;5063551;28;20048;-67
2021/10/18 15:07:22;;;;;;;4.35;0.70;;;;;;;;;;5063013;28;20543;-66
2021/10/18 15:09:48;;;;;;;2.15;1.02;;;;;;;;;;5062324;28;20111;-67
2021/10/18 15:12:16;;;;;;;0.75;0.60;;;;;;;;;;5062234;28;20149;-66
2021/10/18 15:14:44;;;;;;;1.55;0.80;;;;;;;;;;5061682;28;20045;-66
2021/10/18 15:17:11;;;;;;;0.85;0.55;;;;;;;;;;5053513;28;20131;-66
2021/10/18 15:19:38;;;;;;;5.13;0.70;;;;;;;;;;5055872;28;20132;-67
2021/10/18 15:22:05;;;;;;;1.88;0.73;;;;;;;;;;5063988;28;20128;-67
2021/10/18 15:24:32;;;;;;;;;;;;;;;;;;5057385;28;20059;-66
2021/10/18 15:26:58;;;;;;;5.38;0.60;;;;;;;;;;5061327;28;19955;-67
2021/10/18 15:29:24;;;;;;;3.58;0.98;;;;;;;;;;5060055;28;20084;-66
2021/10/18 15:31:52;;;;;;;7.57;1.13;;;;;;;;;;5065062;28;20135;-66
2021/10/18 15:34:19;;;;;;;1.35;0.60;;;;;;;;;;5059779;28;20126;-66
2021/10/18 15:36:48;;;;;;;2.58;0.75;;;;;;;;;;5062689;28;20088;-67
2021/10/18 15:39:15;;;;;;;1.80;0.77;;;;;;;;;;5065290;28;20132;-66
2021/10/18 15:41:41;;;;;;;1.07;0.70;;;;;;;;;;5062187;28;20119;-67
2021/10/18 15:44:08;;;;;;;4.13;1.05;;;;;;;;;;5064924;28;20080;-66
2021/10/18 15:46:34;;;;;;;1.75;0.73;;;;;;;;;;5062716;28;20567;-66
2021/10/18 15:49:02;;;;;;;2.55;0.90;;;;;;;;;;5066420;28;20118;-67
2021/10/18 15:51:28;;;;;;;;;;;;;;;;;;5060105;28;20140;-67
2021/10/18 15:53:55;;;;;;;2.67;0.90;;;;;;;;;;5062257;28;20010;-67
2021/10/18 15:56:22;;;;;;;3.63;1.02;;;;;;;;;;5053397;28;20048;-66
2021/10/18 15:58:49;;;;;;;1.63;0.75;;;;;;;;;;5067278;28;20076;-66